sensor_id;sensor_type;location;lat;lon;timestamp;P1;durP1;ratioP1;P2;durP2;ratioP2
75698;SDS011;64313;51.018;13.742;2023-04-01T00:01:43;2.53;;;0.63;;
75698;SDS011;64313;51.018;13.742;2023-04-01T00:04:08;3.58;;;0.63;;
75698;SDS011;64313;51.018;13.742;2023-04-01T00:06:34;2.10;;;0.50;;
75698;SDS011;64313;51.018;13.742;2023-04-01T00:08:59;3.45;;;0.60;;
75698;SDS011;64313;51.018;13.742;2023-04-01T00:11:25;2.55;;;0.60;;
75698;SDS011;64313;51.018;13.742;2023-04-01T00:13:52;2.17;;;0.60;;
75698;SDS011;64313;51.018;13.742;2023-04-01T00:16:17;2.42;;;0.50;;
75698;SDS011;64313;51.018;13.742;2023-04-01T00:18:43;1.85;;;0.50;;
75698;SDS011;64313;51.018;13.742;2023-04-01T00:21:08;3.08;;;0.60;;
75698;SDS011;64313;51.018;13.742;2023-04-01T00:23:33;1.95;;;0.50;;
75698;SDS011;64313;51.018;13.742;2023-04-01T00:25:59;2.03;;;0.70;;
75698;SDS011;64313;51.018;13.742;2023-04-01T00:28:26;2.22;;;0.60;;
75698;SDS011;64313;51.018;13.742;2023-04-01T00:30:51;1.73;;;0.60;;
75698;SDS011;64313;51.018;13.742;2023-04-01T00:33:17;3.22;;;0.60;;
75698;SDS011;64313;51.018;13.742;2023-04-01T00:35:42;2.83;;;0.60;;
75698;SDS011;64313;51.018;13.742;2023-04-01T00:38:08;4.13;;;0.70;;
75698;SDS011;64313;51.018;13.742;2023-04-01T00:40:35;2.95;;;0.57;;
75698;SDS011;64313;51.018;13.742;2023-04-01T00:43:02;2.05;;;0.55;;
75698;SDS011;64313;51.018;13.742;2023-04-01T00:45:29;3.05;;;0.60;;
75698;SDS011;64313;51.018;13.742;2023-04-01T00:47:58;2.20;;;0.50;;
75698;SDS011;64313;51.018;13.742;2023-04-01T00:50:26;2.35;;;0.52;;
75698;SDS011;64313;51.018;13.742;2023-04-01T00:52:55;4.10;;;0.70;;
75698;SDS011;64313;51.018;13.742;2023-04-01T00:55:21;2.70;;;0.70;;
75698;SDS011;64313;51.018;13.742;2023-04-01T00:57:48;2.90;;;0.90;;
75698;SDS011;64313;51.018;13.742;2023-04-01T01:00:16;3.22;;;0.73;;
75698;SDS011;64313;51.018;13.742;2023-04-01T01:02:43;3.05;;;0.63;;
75698;SDS011;64313;51.018;13.742;2023-04-01T01:05:16;2.67;;;0.80;;
75698;SDS011;64313;51.018;13.742;2023-04-01T01:07:48;2.05;;;0.50;;
75698;SDS011;64313;51.018;13.742;2023-04-01T01:10:33;2.75;;;0.60;;
75698;SDS011;64313;51.018;13.742;2023-04-01T01:15:47;2.47;;;0.50;;
75698;SDS011;64313;51.018;13.742;2023-04-01T01:18:33;2.47;;;0.70;;
75698;SDS011;64313;51.018;13.742;2023-04-01T01:21:09;2.00;;;0.50;;
75698;SDS011;64313;51.018;13.742;2023-04-01T01:26:51;1.98;;;0.50;;
75698;SDS011;64313;51.018;13.742;2023-04-01T01:29:31;2.25;;;0.60;;
75698;SDS011;64313;51.018;13.742;2023-04-01T01:35:06;3.40;;;0.60;;
75698;SDS011;64313;51.018;13.742;2023-04-01T01:37:45;4.28;;;0.80;;
75698;SDS011;64313;51.018;13.742;2023-04-01T01:40:12;2.00;;;0.60;;
75698;SDS011;64313;51.018;13.742;2023-04-01T01:42:41;3.25;;;0.60;;
75698;SDS011;64313;51.018;13.742;2023-04-01T01:47:39;2.40;;;0.60;;
75698;SDS011;64313;51.018;13.742;2023-04-01T01:50:06;2.78;;;0.60;;
75698;SDS011;64313;51.018;13.742;2023-04-01T01:52:34;5.28;;;0.70;;
75698;SDS011;64313;51.018;13.742;2023-04-01T01:55:00;3.72;;;0.70;;
75698;SDS011;64313;51.018;13.742;2023-04-01T01:57:33;4.13;;;0.70;;
75698;SDS011;64313;51.018;13.742;2023-04-01T02:00:05;5.05;;;0.60;;
75698;SDS011;64313;51.018;13.742;2023-04-01T02:02:40;2.25;;;0.50;;
75698;SDS011;64313;51.018;13.742;2023-04-01T02:05:15;3.70;;;0.60;;
75698;SDS011;64313;51.018;13.742;2023-04-01T02:07:44;2.58;;;0.70;;
75698;SDS011;64313;51.018;13.742;2023-04-01T02:10:16;3.38;;;0.70;;
75698;SDS011;64313;51.018;13.742;2023-04-01T02:12:44;4.90;;;0.50;;
75698;SDS011;64313;51.018;13.742;2023-04-01T02:15:12;2.38;;;0.65;;
75698;SDS011;64313;51.018;13.742;2023-04-01T02:17:42;4.05;;;1.27;;
75698;SDS011;64313;51.018;13.742;2023-04-01T02:20:15;2.67;;;0.70;;
75698;SDS011;64313;51.018;13.742;2023-04-01T02:22:46;3.55;;;0.70;;
75698;SDS011;64313;51.018;13.742;2023-04-01T02:25:17;3.28;;;0.70;;
75698;SDS011;64313;51.018;13.742;2023-04-01T02:27:45;2.80;;;0.68;;
75698;SDS011;64313;51.018;13.742;2023-04-01T02:30:12;2.40;;;0.52;;
75698;SDS011;64313;51.018;13.742;2023-04-01T02:32:38;2.90;;;0.70;;
75698;SDS011;64313;51.018;13.742;2023-04-01T02:35:06;5.70;;;1.30;;
75698;SDS011;64313;51.018;13.742;2023-04-01T02:37:34;3.63;;;0.80;;
75698;SDS011;64313;51.018;13.742;2023-04-01T02:40:03;5.13;;;0.93;;
75698;SDS011;64313;51.018;13.742;2023-04-01T02:42:32;4.50;;;0.70;;
75698;SDS011;64313;51.018;13.742;2023-04-01T02:44:58;3.03;;;0.82;;
75698;SDS011;64313;51.018;13.742;2023-04-01T02:47:24;4.53;;;0.85;;
75698;SDS011;64313;51.018;13.742;2023-04-01T02:49:49;4.20;;;0.98;;
75698;SDS011;64313;51.018;13.742;2023-04-01T02:52:14;3.65;;;0.80;;
75698;SDS011;64313;51.018;13.742;2023-04-01T02:54:40;3.30;;;0.68;;
75698;SDS011;64313;51.018;13.742;2023-04-01T02:57:05;3.53;;;0.60;;
75698;SDS011;64313;51.018;13.742;2023-04-01T02:59:31;3.92;;;0.70;;
75698;SDS011;64313;51.018;13.742;2023-04-01T03:01:57;2.75;;;0.60;;
75698;SDS011;64313;51.018;13.742;2023-04-01T03:04:22;2.60;;;0.50;;
75698;SDS011;64313;51.018;13.742;2023-04-01T03:06:48;2.08;;;0.60;;
75698;SDS011;64313;51.018;13.742;2023-04-01T03:09:13;3.28;;;0.70;;
75698;SDS011;64313;51.018;13.742;2023-04-01T03:11:39;3.05;;;0.68;;
75698;SDS011;64313;51.018;13.742;2023-04-01T03:14:05;4.55;;;0.60;;
75698;SDS011;64313;51.018;13.742;2023-04-01T03:16:32;3.97;;;0.82;;
75698;SDS011;64313;51.018;13.742;2023-04-01T03:18:57;2.35;;;0.73;;
75698;SDS011;64313;51.018;13.742;2023-04-01T03:21:25;2.08;;;0.60;;
75698;SDS011;64313;51.018;13.742;2023-04-01T03:23:50;3.78;;;0.80;;
75698;SDS011;64313;51.018;13.742;2023-04-01T03:26:16;3.40;;;0.90;;
75698;SDS011;64313;51.018;13.742;2023-04-01T03:28:43;3.10;;;0.77;;
75698;SDS011;64313;51.018;13.742;2023-04-01T03:31:08;3.45;;;0.73;;
75698;SDS011;64313;51.018;13.742;2023-04-01T03:33:42;3.67;;;0.70;;
75698;SDS011;64313;51.018;13.742;2023-04-01T03:36:07;4.47;;;0.70;;
75698;SDS011;64313;51.018;13.742;2023-04-01T03:38:33;3.75;;;0.77;;
75698;SDS011;64313;51.018;13.742;2023-04-01T03:40:59;5.38;;;0.80;;
75698;SDS011;64313;51.018;13.742;2023-04-01T03:43:25;2.88;;;0.80;;
75698;SDS011;64313;51.018;13.742;2023-04-01T03:45:51;2.80;;;0.63;;
75698;SDS011;64313;51.018;13.742;2023-04-01T03:48:17;2.33;;;0.60;;
75698;SDS011;64313;51.018;13.742;2023-04-01T03:50:43;5.07;;;0.80;;
75698;SDS011;64313;51.018;13.742;2023-04-01T03:53:09;2.63;;;0.68;;
75698;SDS011;64313;51.018;13.742;2023-04-01T03:55:39;3.75;;;1.00;;
75698;SDS011;64313;51.018;13.742;2023-04-01T03:58:05;4.05;;;0.65;;
75698;SDS011;64313;51.018;13.742;2023-04-01T04:00:31;4.53;;;0.80;;
75698;SDS011;64313;51.018;13.742;2023-04-01T04:02:57;3.60;;;0.60;;
75698;SDS011;64313;51.018;13.742;2023-04-01T04:05:29;1.98;;;0.60;;
75698;SDS011;64313;51.018;13.742;2023-04-01T04:07:54;2.65;;;0.60;;
75698;SDS011;64313;51.018;13.742;2023-04-01T04:10:20;2.92;;;0.60;;
75698;SDS011;64313;51.018;13.742;2023-04-01T04:12:48;3.28;;;0.60;;
75698;SDS011;64313;51.018;13.742;2023-04-01T04:15:14;2.90;;;0.60;;
75698;SDS011;64313;51.018;13.742;2023-04-01T04:17:40;2.97;;;0.70;;
75698;SDS011;64313;51.018;13.742;2023-04-01T04:20:06;4.40;;;0.80;;
75698;SDS011;64313;51.018;13.742;2023-04-01T04:22:33;3.13;;;0.60;;
75698;SDS011;64313;51.018;13.742;2023-04-01T04:24:59;1.88;;;0.57;;
75698;SDS011;64313;51.018;13.742;2023-04-01T04:27:25;3.78;;;0.60;;
75698;SDS011;64313;51.018;13.742;2023-04-01T04:29:58;3.50;;;0.95;;
75698;SDS011;64313;51.018;13.742;2023-04-01T04:32:24;2.97;;;0.60;;
75698;SDS011;64313;51.018;13.742;2023-04-01T04:34:49;3.17;;;0.80;;
75698;SDS011;64313;51.018;13.742;2023-04-01T04:37:15;4.00;;;0.68;;
75698;SDS011;64313;51.018;13.742;2023-04-01T04:39:41;2.08;;;0.60;;
75698;SDS011;64313;51.018;13.742;2023-04-01T04:42:07;3.58;;;0.70;;
75698;SDS011;64313;51.018;13.742;2023-04-01T04:44:32;2.70;;;0.73;;
75698;SDS011;64313;51.018;13.742;2023-04-01T04:46:59;2.90;;;0.60;;
75698;SDS011;64313;51.018;13.742;2023-04-01T04:49:25;3.00;;;0.70;;
75698;SDS011;64313;51.018;13.742;2023-04-01T04:51:50;2.20;;;0.43;;
75698;SDS011;64313;51.018;13.742;2023-04-01T04:54:21;3.63;;;0.80;;
75698;SDS011;64313;51.018;13.742;2023-04-01T04:56:52;2.92;;;0.47;;
75698;SDS011;64313;51.018;13.742;2023-04-01T04:59:19;2.17;;;0.60;;
75698;SDS011;64313;51.018;13.742;2023-04-01T05:04:16;5.47;;;0.80;;
75698;SDS011;64313;51.018;13.742;2023-04-01T05:06:42;4.43;;;0.88;;
75698;SDS011;64313;51.018;13.742;2023-04-01T05:09:08;3.95;;;0.90;;
75698;SDS011;64313;51.018;13.742;2023-04-01T05:11:33;2.20;;;0.50;;
75698;SDS011;64313;51.018;13.742;2023-04-01T05:13:59;3.25;;;0.55;;
75698;SDS011;64313;51.018;13.742;2023-04-01T05:16:26;2.90;;;0.60;;
75698;SDS011;64313;51.018;13.742;2023-04-01T05:18:51;3.88;;;0.70;;
75698;SDS011;64313;51.018;13.742;2023-04-01T05:21:16;4.43;;;0.80;;
75698;SDS011;64313;51.018;13.742;2023-04-01T05:23:42;3.03;;;0.70;;
75698;SDS011;64313;51.018;13.742;2023-04-01T05:26:09;2.90;;;0.68;;
75698;SDS011;64313;51.018;13.742;2023-04-01T05:28:36;4.63;;;1.08;;
75698;SDS011;64313;51.018;13.742;2023-04-01T05:31:03;2.25;;;0.73;;
75698;SDS011;64313;51.018;13.742;2023-04-01T05:33:33;3.40;;;0.73;;
75698;SDS011;64313;51.018;13.742;2023-04-01T05:36:06;3.35;;;0.70;;
75698;SDS011;64313;51.018;13.742;2023-04-01T05:38:33;2.90;;;0.90;;
75698;SDS011;64313;51.018;13.742;2023-04-01T05:40:59;2.25;;;0.52;;
75698;SDS011;64313;51.018;13.742;2023-04-01T05:43:25;3.95;;;0.73;;
75698;SDS011;64313;51.018;13.742;2023-04-01T05:45:52;2.90;;;0.82;;
75698;SDS011;64313;51.018;13.742;2023-04-01T05:48:33;2.92;;;0.60;;
75698;SDS011;64313;51.018;13.742;2023-04-01T05:51:00;3.08;;;0.70;;
75698;SDS011;64313;51.018;13.742;2023-04-01T05:53:30;4.38;;;0.70;;
75698;SDS011;64313;51.018;13.742;2023-04-01T05:55:56;3.38;;;0.60;;
75698;SDS011;64313;51.018;13.742;2023-04-01T05:58:22;2.95;;;0.70;;
75698;SDS011;64313;51.018;13.742;2023-04-01T06:00:51;3.40;;;0.70;;
75698;SDS011;64313;51.018;13.742;2023-04-01T06:03:16;3.67;;;0.60;;
75698;SDS011;64313;51.018;13.742;2023-04-01T06:05:42;3.85;;;0.70;;
75698;SDS011;64313;51.018;13.742;2023-04-01T06:08:13;1.52;;;0.60;;
75698;SDS011;64313;51.018;13.742;2023-04-01T06:22:37;4.53;;;0.95;;
75698;SDS011;64313;51.018;13.742;2023-04-01T06:25:29;4.32;;;0.90;;
75698;SDS011;64313;51.018;13.742;2023-04-01T06:30:57;2.70;;;0.70;;
75698;SDS011;64313;51.018;13.742;2023-04-01T06:34:01;2.53;;;0.77;;
75698;SDS011;64313;51.018;13.742;2023-04-01T06:39:51;2.47;;;0.63;;
75698;SDS011;64313;51.018;13.742;2023-04-01T06:46:17;2.17;;;0.70;;
75698;SDS011;64313;51.018;13.742;2023-04-01T06:53:19;2.05;;;0.70;;
75698;SDS011;64313;51.018;13.742;2023-04-01T06:56:14;2.63;;;0.70;;
75698;SDS011;64313;51.018;13.742;2023-04-01T06:58:55;2.40;;;0.68;;
75698;SDS011;64313;51.018;13.742;2023-04-01T07:07:01;3.42;;;0.75;;
75698;SDS011;64313;51.018;13.742;2023-04-01T07:09:41;3.97;;;0.82;;
75698;SDS011;64313;51.018;13.742;2023-04-01T07:12:41;2.30;;;0.73;;
75698;SDS011;64313;51.018;13.742;2023-04-01T07:15:40;2.20;;;0.60;;
75698;SDS011;64313;51.018;13.742;2023-04-01T07:18:21;4.70;;;0.82;;
75698;SDS011;64313;51.018;13.742;2023-04-01T07:20:55;2.63;;;0.75;;
75698;SDS011;64313;51.018;13.742;2023-04-01T07:23:24;1.58;;;0.50;;
75698;SDS011;64313;51.018;13.742;2023-04-01T07:26:08;2.42;;;0.60;;
75698;SDS011;64313;51.018;13.742;2023-04-01T07:29:11;2.60;;;0.75;;
75698;SDS011;64313;51.018;13.742;2023-04-01T07:34:38;2.35;;;0.50;;
75698;SDS011;64313;51.018;13.742;2023-04-01T07:37:24;3.03;;;0.95;;
75698;SDS011;64313;51.018;13.742;2023-04-01T07:49:22;3.78;;;0.88;;
75698;SDS011;64313;51.018;13.742;2023-04-01T07:59:56;2.83;;;0.68;;
75698;SDS011;64313;51.018;13.742;2023-04-01T08:02:43;2.72;;;0.80;;
75698;SDS011;64313;51.018;13.742;2023-04-01T08:17:28;3.88;;;0.70;;
75698;SDS011;64313;51.018;13.742;2023-04-01T08:20:08;3.75;;;0.80;;
75698;SDS011;64313;51.018;13.742;2023-04-01T08:22:45;1.85;;;0.50;;
75698;SDS011;64313;51.018;13.742;2023-04-01T08:25:24;2.60;;;0.60;;
75698;SDS011;64313;51.018;13.742;2023-04-01T08:27:55;2.00;;;0.50;;
75698;SDS011;64313;51.018;13.742;2023-04-01T08:30:26;1.60;;;0.82;;
75698;SDS011;64313;51.018;13.742;2023-04-01T08:35:39;3.17;;;0.70;;
75698;SDS011;64313;51.018;13.742;2023-04-01T08:38:17;2.55;;;0.60;;
75698;SDS011;64313;51.018;13.742;2023-04-01T08:40:55;4.05;;;0.80;;
75698;SDS011;64313;51.018;13.742;2023-04-01T08:43:47;2.03;;;0.60;;
75698;SDS011;64313;51.018;13.742;2023-04-01T08:46:32;2.60;;;0.60;;
75698;SDS011;64313;51.018;13.742;2023-04-01T08:51:58;2.38;;;0.60;;
75698;SDS011;64313;51.018;13.742;2023-04-01T08:54:44;0.82;;;0.50;;
75698;SDS011;64313;51.018;13.742;2023-04-01T09:06:26;1.67;;;0.50;;
75698;SDS011;64313;51.018;13.742;2023-04-01T09:09:21;1.95;;;0.60;;
75698;SDS011;64313;51.018;13.742;2023-04-01T09:12:12;2.13;;;0.68;;
75698;SDS011;64313;51.018;13.742;2023-04-01T09:20:58;2.85;;;0.50;;
75698;SDS011;64313;51.018;13.742;2023-04-01T09:26:31;7.03;;;1.50;;
75698;SDS011;64313;51.018;13.742;2023-04-01T09:29:26;6.32;;;1.13;;
75698;SDS011;64313;51.018;13.742;2023-04-01T09:32:20;3.33;;;1.05;;
75698;SDS011;64313;51.018;13.742;2023-04-01T09:41:17;2.55;;;0.60;;
75698;SDS011;64313;51.018;13.742;2023-04-01T09:44:15;3.33;;;0.65;;
75698;SDS011;64313;51.018;13.742;2023-04-01T09:47:06;4.78;;;1.13;;
75698;SDS011;64313;51.018;13.742;2023-04-01T09:49:55;5.53;;;1.25;;
75698;SDS011;64313;51.018;13.742;2023-04-01T09:52:43;5.68;;;0.90;;
75698;SDS011;64313;51.018;13.742;2023-04-01T10:01:23;3.75;;;0.57;;
75698;SDS011;64313;51.018;13.742;2023-04-01T10:04:07;3.85;;;1.13;;
75698;SDS011;64313;51.018;13.742;2023-04-01T10:07:10;4.35;;;0.95;;
75698;SDS011;64313;51.018;13.742;2023-04-01T10:12:50;1.75;;;0.57;;
75698;SDS011;64313;51.018;13.742;2023-04-01T10:15:35;4.03;;;0.80;;
75698;SDS011;64313;51.018;13.742;2023-04-01T10:21:25;1.88;;;0.55;;
75698;SDS011;64313;51.018;13.742;2023-04-01T10:27:15;3.47;;;0.70;;
75698;SDS011;64313;51.018;13.742;2023-04-01T10:30:17;2.42;;;0.60;;
75698;SDS011;64313;51.018;13.742;2023-04-01T10:32:57;1.15;;;0.40;;
75698;SDS011;64313;51.018;13.742;2023-04-01T10:42:11;1.50;;;0.45;;
75698;SDS011;64313;51.018;13.742;2023-04-01T10:51:00;2.28;;;0.65;;
75698;SDS011;64313;51.018;13.742;2023-04-01T10:53:59;2.35;;;0.90;;
75698;SDS011;64313;51.018;13.742;2023-04-01T11:03:27;1.23;;;0.40;;
75698;SDS011;64313;51.018;13.742;2023-04-01T11:09:29;1.63;;;0.50;;
75698;SDS011;64313;51.018;13.742;2023-04-01T11:18:33;2.15;;;0.60;;
75698;SDS011;64313;51.018;13.742;2023-04-01T11:21:23;2.22;;;0.60;;
75698;SDS011;64313;51.018;13.742;2023-04-01T11:30:17;2.72;;;0.70;;
75698;SDS011;64313;51.018;13.742;2023-04-01T11:50:08;1.20;;;0.50;;
75698;SDS011;64313;51.018;13.742;2023-04-01T11:53:01;0.77;;;0.40;;
75698;SDS011;64313;51.018;13.742;2023-04-01T11:58:30;1.50;;;0.40;;
75698;SDS011;64313;51.018;13.742;2023-04-01T12:04:19;2.10;;;0.40;;
75698;SDS011;64313;51.018;13.742;2023-04-01T12:10:18;2.78;;;0.47;;
75698;SDS011;64313;51.018;13.742;2023-04-01T12:12:54;1.42;;;0.50;;
75698;SDS011;64313;51.018;13.742;2023-04-01T12:18:10;1.23;;;0.50;;
75698;SDS011;64313;51.018;13.742;2023-04-01T12:20:50;2.13;;;0.50;;
75698;SDS011;64313;51.018;13.742;2023-04-01T12:23:52;1.75;;;0.68;;
75698;SDS011;64313;51.018;13.742;2023-04-01T12:29:37;3.03;;;0.60;;
75698;SDS011;64313;51.018;13.742;2023-04-01T12:49:21;2.40;;;0.63;;
75698;SDS011;64313;51.018;13.742;2023-04-01T12:52:11;2.22;;;0.60;;
75698;SDS011;64313;51.018;13.742;2023-04-01T13:00:24;2.15;;;0.50;;
75698;SDS011;64313;51.018;13.742;2023-04-01T13:03:07;1.52;;;0.65;;
75698;SDS011;64313;51.018;13.742;2023-04-01T13:08:33;2.92;;;0.70;;
75698;SDS011;64313;51.018;13.742;2023-04-01T13:13:53;0.88;;;0.50;;
75698;SDS011;64313;51.018;13.742;2023-04-01T13:16:52;1.65;;;0.60;;
75698;SDS011;64313;51.018;13.742;2023-04-01T13:19:29;1.60;;;0.60;;
75698;SDS011;64313;51.018;13.742;2023-04-01T13:24:51;2.42;;;0.90;;
75698;SDS011;64313;51.018;13.742;2023-04-01T13:27:30;2.30;;;0.63;;
75698;SDS011;64313;51.018;13.742;2023-04-01T13:35:50;1.95;;;0.57;;
75698;SDS011;64313;51.018;13.742;2023-04-01T13:43:58;1.02;;;0.50;;
75698;SDS011;64313;51.018;13.742;2023-04-01T13:46:47;0.88;;;0.40;;
75698;SDS011;64313;51.018;13.742;2023-04-01T13:49:37;0.75;;;0.40;;
75698;SDS011;64313;51.018;13.742;2023-04-01T13:52:47;1.30;;;0.30;;
75698;SDS011;64313;51.018;13.742;2023-04-01T13:58:30;0.85;;;0.40;;
75698;SDS011;64313;51.018;13.742;2023-04-01T14:03:44;1.17;;;0.30;;
75698;SDS011;64313;51.018;13.742;2023-04-01T14:06:31;1.20;;;0.50;;
75698;SDS011;64313;51.018;13.742;2023-04-01T14:09:25;0.88;;;0.40;;
75698;SDS011;64313;51.018;13.742;2023-04-01T14:20:29;0.45;;;0.30;;
75698;SDS011;64313;51.018;13.742;2023-04-01T14:36:49;1.15;;;0.45;;
75698;SDS011;64313;51.018;13.742;2023-04-01T14:51:03;1.17;;;0.50;;
75698;SDS011;64313;51.018;13.742;2023-04-01T14:53:36;2.72;;;0.70;;
75698;SDS011;64313;51.018;13.742;2023-04-01T14:56:09;1.88;;;0.60;;
75698;SDS011;64313;51.018;13.742;2023-04-01T14:58:42;2.28;;;0.77;;
75698;SDS011;64313;51.018;13.742;2023-04-01T15:12:29;1.65;;;0.65;;
75698;SDS011;64313;51.018;13.742;2023-04-01T15:18:08;1.17;;;0.40;;
75698;SDS011;64313;51.018;13.742;2023-04-01T15:20:42;1.35;;;0.50;;
75698;SDS011;64313;51.018;13.742;2023-04-01T15:26:29;0.85;;;0.40;;
75698;SDS011;64313;51.018;13.742;2023-04-01T15:32:17;0.93;;;0.50;;
75698;SDS011;64313;51.018;13.742;2023-04-01T15:38:02;0.90;;;0.50;;
75698;SDS011;64313;51.018;13.742;2023-04-01T15:40:38;0.95;;;0.50;;
75698;SDS011;64313;51.018;13.742;2023-04-01T15:43:26;1.55;;;0.40;;
75698;SDS011;64313;51.018;13.742;2023-04-01T15:52:12;0.63;;;0.47;;
75698;SDS011;64313;51.018;13.742;2023-04-01T15:55:10;2.20;;;0.70;;
75698;SDS011;64313;51.018;13.742;2023-04-01T16:00:40;2.43;;;0.60;;
75698;SDS011;64313;51.018;13.742;2023-04-01T16:03:17;1.15;;;0.50;;
75698;SDS011;64313;51.018;13.742;2023-04-01T16:19:56;1.85;;;0.68;;
75698;SDS011;64313;51.018;13.742;2023-04-01T16:27:35;1.73;;;0.50;;
75698;SDS011;64313;51.018;13.742;2023-04-01T16:33:08;1.75;;;0.60;;
75698;SDS011;64313;51.018;13.742;2023-04-01T16:35:41;1.67;;;0.60;;
75698;SDS011;64313;51.018;13.742;2023-04-01T16:46:18;1.23;;;0.60;;
75698;SDS011;64313;51.018;13.742;2023-04-01T16:54:28;1.85;;;0.68;;
75698;SDS011;64313;51.018;13.742;2023-04-01T16:59:35;2.58;;;0.65;;
75698;SDS011;64313;51.018;13.742;2023-04-01T17:02:04;2.88;;;0.88;;
75698;SDS011;64313;51.018;13.742;2023-04-01T17:04:42;2.20;;;0.73;;
75698;SDS011;64313;51.018;13.742;2023-04-01T17:18:33;2.17;;;0.65;;
75698;SDS011;64313;51.018;13.742;2023-04-01T17:24:21;1.98;;;0.70;;
75698;SDS011;64313;51.018;13.742;2023-04-01T17:32:25;2.28;;;0.82;;
75698;SDS011;64313;51.018;13.742;2023-04-01T17:43:29;4.63;;;1.48;;
75698;SDS011;64313;51.018;13.742;2023-04-01T17:51:48;2.88;;;1.10;;
75698;SDS011;64313;51.018;13.742;2023-04-01T17:54:31;3.08;;;1.30;;
75698;SDS011;64313;51.018;13.742;2023-04-01T17:59:58;3.45;;;1.35;;
75698;SDS011;64313;51.018;13.742;2023-04-01T18:05:24;4.25;;;1.52;;
75698;SDS011;64313;51.018;13.742;2023-04-01T18:28:14;5.30;;;2.80;;
75698;SDS011;64313;51.018;13.742;2023-04-01T18:30:49;6.78;;;3.22;;
75698;SDS011;64313;51.018;13.742;2023-04-01T18:33:41;6.65;;;3.10;;
75698;SDS011;64313;51.018;13.742;2023-04-01T18:39:10;6.78;;;2.80;;
75698;SDS011;64313;51.018;13.742;2023-04-01T18:44:56;7.03;;;3.00;;
75698;SDS011;64313;51.018;13.742;2023-04-01T18:50:53;6.07;;;2.75;;
75698;SDS011;64313;51.018;13.742;2023-04-01T18:53:27;7.40;;;2.70;;
75698;SDS011;64313;51.018;13.742;2023-04-01T18:56:09;5.63;;;2.67;;
75698;SDS011;64313;51.018;13.742;2023-04-01T18:58:54;5.28;;;2.20;;
75698;SDS011;64313;51.018;13.742;2023-04-01T19:01:39;5.15;;;2.40;;
75698;SDS011;64313;51.018;13.742;2023-04-01T19:07:49;5.53;;;2.17;;
75698;SDS011;64313;51.018;13.742;2023-04-01T19:12:54;5.93;;;2.70;;
75698;SDS011;64313;51.018;13.742;2023-04-01T19:29:58;10.05;;;5.05;;
75698;SDS011;64313;51.018;13.742;2023-04-01T19:38:40;7.53;;;3.40;;
75698;SDS011;64313;51.018;13.742;2023-04-01T19:49:26;4.65;;;2.10;;
75698;SDS011;64313;51.018;13.742;2023-04-01T19:57:45;5.13;;;2.30;;
75698;SDS011;64313;51.018;13.742;2023-04-01T20:05:28;5.55;;;2.80;;
75698;SDS011;64313;51.018;13.742;2023-04-01T20:13:36;5.60;;;2.63;;
75698;SDS011;64313;51.018;13.742;2023-04-01T20:16:16;5.53;;;2.70;;
75698;SDS011;64313;51.018;13.742;2023-04-01T20:18:58;6.47;;;3.00;;
75698;SDS011;64313;51.018;13.742;2023-04-01T20:21:30;5.68;;;3.03;;
75698;SDS011;64313;51.018;13.742;2023-04-01T20:24:01;6.07;;;3.17;;
75698;SDS011;64313;51.018;13.742;2023-04-01T20:26:37;8.45;;;3.35;;
75698;SDS011;64313;51.018;13.742;2023-04-01T20:34:36;6.40;;;3.10;;
75698;SDS011;64313;51.018;13.742;2023-04-01T20:37:21;6.72;;;3.10;;
75698;SDS011;64313;51.018;13.742;2023-04-01T20:40:18;6.68;;;2.85;;
75698;SDS011;64313;51.018;13.742;2023-04-01T20:45:58;5.78;;;3.13;;
75698;SDS011;64313;51.018;13.742;2023-04-01T20:51:06;6.10;;;3.25;;
75698;SDS011;64313;51.018;13.742;2023-04-01T20:53:43;7.47;;;2.92;;
75698;SDS011;64313;51.018;13.742;2023-04-01T21:06:59;6.80;;;3.33;;
75698;SDS011;64313;51.018;13.742;2023-04-01T21:21:02;10.35;;;4.85;;
75698;SDS011;64313;51.018;13.742;2023-04-01T21:34:35;9.32;;;4.65;;
75698;SDS011;64313;51.018;13.742;2023-04-01T21:37:11;8.80;;;4.47;;
75698;SDS011;64313;51.018;13.742;2023-04-01T21:42:46;9.00;;;4.57;;
75698;SDS011;64313;51.018;13.742;2023-04-01T21:45:37;8.02;;;4.07;;
75698;SDS011;64313;51.018;13.742;2023-04-01T21:51:26;7.05;;;3.70;;
75698;SDS011;64313;51.018;13.742;2023-04-01T21:59:43;6.75;;;3.65;;
75698;SDS011;64313;51.018;13.742;2023-04-01T22:02:59;6.55;;;3.42;;
75698;SDS011;64313;51.018;13.742;2023-04-01T22:05:54;5.45;;;2.90;;
75698;SDS011;64313;51.018;13.742;2023-04-01T22:08:32;4.53;;;2.10;;
75698;SDS011;64313;51.018;13.742;2023-04-01T22:11:18;3.58;;;1.50;;
75698;SDS011;64313;51.018;13.742;2023-04-01T22:14:05;2.75;;;1.10;;
75698;SDS011;64313;51.018;13.742;2023-04-01T22:16:46;2.53;;;1.08;;
75698;SDS011;64313;51.018;13.742;2023-04-01T22:22:21;1.42;;;0.60;;
75698;SDS011;64313;51.018;13.742;2023-04-01T22:24:57;1.52;;;0.70;;
75698;SDS011;64313;51.018;13.742;2023-04-01T22:27:31;2.25;;;0.90;;
75698;SDS011;64313;51.018;13.742;2023-04-01T22:30:10;2.65;;;1.00;;
75698;SDS011;64313;51.018;13.742;2023-04-01T22:32:42;2.45;;;0.95;;
75698;SDS011;64313;51.018;13.742;2023-04-01T22:43:47;2.95;;;1.05;;
75698;SDS011;64313;51.018;13.742;2023-04-01T22:49:18;2.80;;;1.08;;
75698;SDS011;64313;51.018;13.742;2023-04-01T22:52:02;2.88;;;1.27;;
75698;SDS011;64313;51.018;13.742;2023-04-01T22:54:36;3.75;;;1.50;;
75698;SDS011;64313;51.018;13.742;2023-04-01T22:57:08;4.18;;;1.70;;
75698;SDS011;64313;51.018;13.742;2023-04-01T23:02:18;4.13;;;1.70;;
75698;SDS011;64313;51.018;13.742;2023-04-01T23:04:52;5.53;;;2.00;;
75698;SDS011;64313;51.018;13.742;2023-04-01T23:10:27;4.55;;;1.70;;
75698;SDS011;64313;51.018;13.742;2023-04-01T23:13:04;3.60;;;1.30;;
75698;SDS011;64313;51.018;13.742;2023-04-01T23:15:35;3.92;;;1.77;;
75698;SDS011;64313;51.018;13.742;2023-04-01T23:18:06;4.30;;;1.70;;
75698;SDS011;64313;51.018;13.742;2023-04-01T23:26:32;4.03;;;1.67;;
75698;SDS011;64313;51.018;13.742;2023-04-01T23:29:04;4.43;;;2.00;;
75698;SDS011;64313;51.018;13.742;2023-04-01T23:31:41;3.88;;;1.70;;
75698;SDS011;64313;51.018;13.742;2023-04-01T23:36:38;4.70;;;1.88;;
75698;SDS011;64313;51.018;13.742;2023-04-01T23:39:49;4.22;;;2.08;;
75698;SDS011;64313;51.018;13.742;2023-04-01T23:42:04;4.70;;;1.90;;
75698;SDS011;64313;51.018;13.742;2023-04-01T23:44:33;4.20;;;2.08;;
75698;SDS011;64313;51.018;13.742;2023-04-01T23:47:00;4.70;;;2.10;;
75698;SDS011;64313;51.018;13.742;2023-04-01T23:49:39;4.60;;;1.80;;
75698;SDS011;64313;51.018;13.742;2023-04-01T23:54:40;4.72;;;1.92;;
75698;SDS011;64313;51.018;13.742;2023-04-01T23:57:13;4.55;;;2.00;;
75698;SDS011;64313;51.018;13.742;2023-04-01T23:59:42;3.92;;;1.88;;
